Merry Christmas and Happy New Year!

 

Sretan Božić i Nova godina!

 

METAR

METAR LDZA 280730Z 25004KT 230V290 CAVOK 26/18 Q1014 NOSIG =
METAR LDSP 280730Z VRB02KT CAVOK 31/17 Q1014 NOSIG=
METAR LDDU 280730Z 19003KT 120V240 CAVOK 31/16 Q1016 NOSIG =
METAR LDZD 280730Z 17007KT 120V200 9999 FEW060 31/13 Q1015 NOSIG =
METAR LDPL 280730Z 13005KT 050V190 CAVOK 27/22 Q1014 NOSIG=
METAR LDOS 280730Z 24005KT 220V280 CAVOK 28/20 Q1014=
METAR LDRI 280730Z VRB02KT 9999 FEW050 28/19 Q1015=

TAF

TAF LDZA 280525Z 2806/2906 24005KT CAVOK
                 TX35/2814Z TN21/2903Z
           BECMG 2808/2810 24010KT
           BECMG 2818/2820 25006KT=         
TAF LDSP 280525Z 2806/2906 VRB02KT CAVOK
                 TX35/2814Z TN23/2903Z
    PROB30 TEMPO 2811/2816 23007KT=         
TAF LDDU 280525Z 2806/2906 08005KT CAVOK
                 TX33/2812Z TN24/2903Z
    PROB30 TEMPO 2812/2818 30008KT=         
TAF LDZD 280525Z 2806/2906 14006KT CAVOK
                 TX34/2813Z TN19/2903Z
           TEMPO 2811/2816 23008KT
           BECMG 2820/2822 VRB02KT=         
TAF LDPL 280525Z 2806/2906 10007KT 9999 FEW050
                 TX31/2813Z TN21/2903Z
           TEMPO 2810/2817 24007KT
    PROB30 TEMPO 2816/2822 -TSRA FEW050CB=         
TAF LDOS 280525Z 2806/2906 17005KT CAVOK
                 TX35/2814Z TN21/2903Z
           TEMPO 2821/2904 30009KT
    PROB30 TEMPO 2820/2900 TS FEW070CB=         
TAF LDRI 280525Z 2806/2906 11006KT 9999 FEW050
                 TX32/2813Z TN22/2903Z
    PROB30 TEMPO 2816/2822 -TSRA FEW050CB=         
TAF LDSB NIL=         
TAF LDLO NIL=

SIGMET

AIRMET

If you cannot log in with your user account, please contact stjepko.jancijev@crocontrol.hr.
Specifically, the website deactivates user accounts that have not been used for more than 365 days, so they must be reactivated.
 

         

      Politika MET podataka      

 

Ukoliko se svojim korisničkim računom ne možete logirati na web stranicu, molim vas da se obratite na stjepko.jancijev@crocontrol.hr.

Naime, web stranica deaktivira korisničke račune koji nisu korišteni više od 365 dana te ih je potrebno ponovno aktivirati.